Barra del Tortuguero


Codes: MRBT/
Name: Barra del Tortuguero
City: Tortuguero
Country: Costa Rica
Elevation: 19 ft.

Photos at Barra del Tortuguero


   Photos courtesy of SpottingLog. You can add your own sightings and photos by signing up for a free trial today.



No photos found.

Weather at Barra del Tortuguero


Time (UTC)DescriptionTempratureWindCloud coverageVisibilityPressureHumidity
18-Apr-2024 00:00Broken Clouds28°C4 mph, NE84%10000m1009hPa70%
18-Apr-2024 03:00Broken Clouds27°C2 mph, E63%10000m1011hPa77%
18-Apr-2024 06:00Light Rain25°C2 mph, SE75%10000m1012hPa89%
18-Apr-2024 09:00Overcast Clouds25°C4 mph, S96%10000m1011hPa83%
18-Apr-2024 12:00Broken Clouds24°C2 mph, S55%10000m1012hPa88%
18-Apr-2024 15:00Scattered Clouds28°C4 mph, E40%10000m1013hPa69%
18-Apr-2024 18:00Broken Clouds29°C7 mph, E66%10000m1012hPa65%
18-Apr-2024 21:00Clear Sky29°C7 mph, NE9%10000m1010hPa65%
19-Apr-2024 00:00Scattered Clouds27°C4 mph, E32%10000m1011hPa79%
19-Apr-2024 03:00Few Clouds26°C4 mph, SE16%10000m1013hPa82%
19-Apr-2024 06:00Scattered Clouds25°C4 mph, SE44%10000m1012hPa86%
19-Apr-2024 09:00Broken Clouds24°C4 mph, S84%10000m1011hPa90%
19-Apr-2024 12:00Overcast Clouds24°C2 mph, SW89%10000m1013hPa90%
19-Apr-2024 15:00Overcast Clouds28°C2 mph, SE100%10000m1014hPa71%
19-Apr-2024 18:00Overcast Clouds28°C7 mph, E100%10000m1012hPa69%
19-Apr-2024 21:00Broken Clouds28°C7 mph, E82%10000m1010hPa70%
20-Apr-2024 00:00Broken Clouds27°C4 mph, NE68%10000m1011hPa81%
20-Apr-2024 03:00Overcast Clouds26°C7 mph, SE100%10000m1013hPa83%
20-Apr-2024 06:00Overcast Clouds26°C4 mph, SE100%10000m1013hPa87%
20-Apr-2024 09:00Overcast Clouds25°C2 mph, SE100%10000m1011hPa87%
20-Apr-2024 12:00Overcast Clouds25°C2 mph, SW100%7098m1013hPa92%
20-Apr-2024 15:00Light Rain26°C2 mph, SW100%10000m1014hPa82%
20-Apr-2024 18:00Overcast Clouds28°C7 mph, NE100%10000m1013hPa74%
20-Apr-2024 21:00Overcast Clouds28°C7 mph, NE100%10000m1010hPa73%
21-Apr-2024 00:00Overcast Clouds27°C7 mph, E100%10000m1012hPa82%
21-Apr-2024 03:00Overcast Clouds26°C4 mph, SE100%10000m1013hPa85%
21-Apr-2024 06:00Overcast Clouds26°C4 mph, SE99%10000m1012hPa85%
21-Apr-2024 09:00Broken Clouds25°C2 mph, SE79%10000m1011hPa88%
21-Apr-2024 12:00Broken Clouds25°C2 mph, SW73%10000m1012hPa88%
21-Apr-2024 15:00Scattered Clouds28°C4 mph, E28%10000m1013hPa68%
21-Apr-2024 18:00Few Clouds29°C7 mph, E21%10000m1012hPa63%
21-Apr-2024 21:00Clear Sky29°C7 mph, NE1%10000m1009hPa64%
22-Apr-2024 00:00Clear Sky26°C4 mph, E1%10000m1010hPa80%
22-Apr-2024 03:00Clear Sky26°C7 mph, SE0%10000m1012hPa83%
22-Apr-2024 06:00Clear Sky25°C4 mph, SE0%10000m1011hPa83%
22-Apr-2024 09:00Clear Sky25°C2 mph, S1%10000m1010hPa84%
22-Apr-2024 12:00Clear Sky24°C4 mph, SW3%10000m1012hPa86%
22-Apr-2024 15:00Few Clouds28°C4 mph, SE13%10000m1013hPa69%
22-Apr-2024 18:00Few Clouds29°C9 mph, E15%10000m1011hPa67%
22-Apr-2024 21:00Scattered Clouds29°C7 mph, E26%10000m1009hPa68%